Time;durP1;ratioP1;P1;durP2;ratioP2;P2;SDS_P1;SDS_P2;PMS_P1;PMS_P2;Temp;Humidity;BMP_temperature;BMP_pressure;BME280_temperature;BME280_humidity;BME280_pressure;Samples;Min_cycle;Max_cycle;Signal;HPM_P1;HPM_P2
2021/09/12 00:02:18;;;;;;;16.13;8.80;;;;;;;;;;4997614;28;20811;-63
2021/09/12 00:04:45;;;;;;;10.30;8.00;;;;;;;;;;5013034;28;20435;-64
2021/09/12 00:07:11;;;;;;;12.47;9.00;;;;;;;;;;5007104;28;21039;-63
2021/09/12 00:09:37;;;;;;;10.20;7.97;;;;;;;;;;5016198;28;20486;-62
2021/09/12 00:12:03;;;;;;;11.10;8.70;;;;;;;;;;5015412;28;20514;-63
2021/09/12 00:14:29;;;;;;;15.17;9.50;;;;;;;;;;5015952;28;20416;-63
2021/09/12 00:16:55;;;;;;;9.57;7.63;;;;;;;;;;5015181;28;20495;-62
2021/09/12 00:19:22;;;;;;;10.23;8.20;;;;;;;;;;5016150;28;20416;-63
2021/09/12 00:21:48;;;;;;;10.73;7.67;;;;;;;;;;5014917;28;20529;-61
2021/09/12 00:24:14;;;;;;;9.40;7.03;;;;;;;;;;5015762;28;20452;-64
2021/09/12 00:26:40;;;;;;;14.63;7.60;;;;;;;;;;5009387;28;20522;-64
2021/09/12 00:29:06;;;;;;;9.97;7.97;;;;;;;;;;4996452;28;20894;-64
2021/09/12 00:31:32;;;;;;;12.30;9.13;;;;;;;;;;4995983;28;20456;-65
2021/09/12 00:33:58;;;;;;;11.93;7.80;;;;;;;;;;4995757;28;20447;-63
2021/09/12 00:36:24;;;;;;;12.13;8.07;;;;;;;;;;4998826;28;20464;-64
2021/09/12 00:38:50;;;;;;;13.57;9.53;;;;;;;;;;5014033;28;20834;-64
2021/09/12 00:41:17;;;;;;;14.33;9.20;;;;;;;;;;5013579;28;20522;-64
2021/09/12 00:43:43;;;;;;;12.70;9.20;;;;;;;;;;5015709;28;20432;-63
2021/09/12 00:46:09;;;;;;;11.20;7.87;;;;;;;;;;5014530;28;20414;-64
2021/09/12 00:48:35;;;;;;;10.43;8.40;;;;;;;;;;4995793;28;20413;-63
2021/09/12 00:51:02;;;;;;;10.43;8.03;;;;;;;;;;4996705;28;20411;-64
2021/09/12 00:53:30;;;;;;;9.70;8.33;;;;;;;;;;5015311;28;20451;-64
2021/09/12 00:56:00;;;;;;;13.13;9.10;;;;;;;;;;5015905;28;20443;-63
2021/09/12 00:58:27;;;;;;;12.60;9.40;;;;;;;;;;5015207;28;20527;-64
2021/09/12 01:00:53;;;;;;;11.53;8.80;;;;;;;;;;5016488;28;20396;-63
2021/09/12 01:03:19;;;;;;;12.57;9.90;;;;;;;;;;5015880;28;20451;-63
2021/09/12 01:05:46;;;;;;;14.27;10.20;;;;;;;;;;5016184;28;20885;-64
2021/09/12 01:08:12;;;;;;;11.47;9.60;;;;;;;;;;5014983;28;20854;-63
2021/09/12 01:10:40;;;;;;;13.07;10.23;;;;;;;;;;5016160;28;20410;-64
2021/09/12 01:13:06;;;;;;;12.43;10.33;;;;;;;;;;5008949;28;20448;-64
2021/09/12 01:15:32;;;;;;;11.40;8.40;;;;;;;;;;5010199;28;20487;-64
2021/09/12 01:17:58;;;;;;;9.50;7.77;;;;;;;;;;5015061;28;20443;-63
2021/09/12 01:20:24;;;;;;;11.23;8.13;;;;;;;;;;5015720;28;20432;-63
2021/09/12 01:22:51;;;;;;;11.67;8.63;;;;;;;;;;5014070;28;20448;-63
2021/09/12 01:25:17;;;;;;;9.33;7.20;;;;;;;;;;5016153;28;20415;-63
2021/09/12 01:27:43;;;;;;;12.40;8.50;;;;;;;;;;5014324;28;20437;-63
2021/09/12 01:30:10;;;;;;;10.07;8.60;;;;;;;;;;5015794;28;20408;-63
2021/09/12 01:32:36;;;;;;;10.87;8.43;;;;;;;;;;5004581;28;20606;-64
2021/09/12 01:35:03;;;;;;;9.40;7.37;;;;;;;;;;4996224;28;20468;-63
2021/09/12 01:37:29;;;;;;;9.83;7.83;;;;;;;;;;5003285;28;20435;-63
2021/09/12 01:39:55;;;;;;;10.13;7.93;;;;;;;;;;5015328;28;20396;-63
2021/09/12 01:42:21;;;;;;;8.23;7.10;;;;;;;;;;5014467;28;20424;-63
2021/09/12 01:44:49;;;;;;;11.13;9.20;;;;;;;;;;5015351;28;20967;-63
2021/09/12 01:47:15;;;;;;;14.70;8.67;;;;;;;;;;5002981;28;20432;-64
2021/09/12 01:49:42;;;;;;;10.10;8.33;;;;;;;;;;4995704;28;20601;-64
2021/09/12 01:52:10;;;;;;;10.00;7.67;;;;;;;;;;4995520;28;20436;-63
2021/09/12 01:54:37;;;;;;;11.47;9.07;;;;;;;;;;4995557;28;20443;-63
2021/09/12 01:57:03;;;;;;;14.73;10.33;;;;;;;;;;4997801;28;20424;-64
2021/09/12 01:59:29;;;;;;;11.60;8.60;;;;;;;;;;5009362;28;20421;-63
2021/09/12 02:01:55;;;;;;;9.80;7.90;;;;;;;;;;4997885;28;20483;-64
2021/09/12 02:04:21;;;;;;;12.50;8.60;;;;;;;;;;5014740;28;20440;-64
2021/09/12 02:06:47;;;;;;;12.43;8.43;;;;;;;;;;5015275;28;20395;-63
2021/09/12 02:09:13;;;;;;;12.33;8.07;;;;;;;;;;5009936;28;20489;-63
2021/09/12 02:11:39;;;;;;;12.40;8.40;;;;;;;;;;5015151;28;20408;-63
2021/09/12 02:14:05;;;;;;;11.50;9.17;;;;;;;;;;4998048;28;20499;-63
2021/09/12 02:16:31;;;;;;;8.17;7.33;;;;;;;;;;4995320;28;20540;-63
2021/09/12 02:18:57;;;;;;;11.03;7.40;;;;;;;;;;5010260;28;20502;-64
2021/09/12 02:21:23;;;;;;;9.97;7.57;;;;;;;;;;5015323;28;20447;-63
2021/09/12 02:23:49;;;;;;;9.93;7.33;;;;;;;;;;5014126;28;20451;-63
2021/09/12 02:26:15;;;;;;;11.27;7.97;;;;;;;;;;5015124;28;20446;-64
2021/09/12 02:28:41;;;;;;;9.67;7.57;;;;;;;;;;5014256;28;20435;-64
2021/09/12 02:31:07;;;;;;;10.70;7.27;;;;;;;;;;5015420;28;20458;-64
2021/09/12 02:33:33;;;;;;;7.73;6.70;;;;;;;;;;5013009;28;20566;-65
2021/09/12 02:36:01;;;;;;;11.37;8.20;;;;;;;;;;5015237;28;20454;-63
2021/09/12 02:38:27;;;;;;;13.90;9.77;;;;;;;;;;5004050;28;20429;-64
2021/09/12 02:40:53;;;;;;;9.50;7.53;;;;;;;;;;4995789;28;20408;-64
2021/09/12 02:43:19;;;;;;;9.93;7.20;;;;;;;;;;4994952;28;20445;-63
2021/09/12 02:45:46;;;;;;;8.47;7.40;;;;;;;;;;4993954;28;20404;-63
2021/09/12 02:48:12;;;;;;;8.70;7.37;;;;;;;;;;4993722;28;20948;-63
2021/09/12 02:50:38;;;;;;;12.70;10.07;;;;;;;;;;4993850;28;20408;-64
2021/09/12 02:53:04;;;;;;;12.20;7.63;;;;;;;;;;4999748;28;20459;-64
2021/09/12 02:55:30;;;;;;;8.60;6.83;;;;;;;;;;5013496;28;20495;-64
2021/09/12 02:57:56;;;;;;;10.40;7.07;;;;;;;;;;5012113;28;20822;-65
2021/09/12 03:00:22;;;;;;;10.77;7.93;;;;;;;;;;5013839;28;20903;-63
2021/09/12 03:02:48;;;;;;;9.03;7.37;;;;;;;;;;5018004;28;20447;-64
2021/09/12 03:05:14;;;;;;;8.30;6.60;;;;;;;;;;5019035;28;20426;-63
2021/09/12 03:07:40;;;;;;;9.13;6.77;;;;;;;;;;5018821;28;20884;-64
2021/09/12 03:10:06;;;;;;;9.17;6.73;;;;;;;;;;5019737;28;20458;-63
2021/09/12 03:12:32;;;;;;;9.47;7.63;;;;;;;;;;5018229;28;20514;-65
2021/09/12 03:14:58;;;;;;;12.43;7.83;;;;;;;;;;4998833;28;20641;-63
2021/09/12 03:17:24;;;;;;;10.70;7.23;;;;;;;;;;4999753;28;20411;-65
2021/09/12 03:19:50;;;;;;;10.10;7.87;;;;;;;;;;5019608;28;20412;-64
2021/09/12 03:22:17;;;;;;;10.27;7.43;;;;;;;;;;5019639;28;20703;-63
2021/09/12 03:24:43;;;;;;;10.97;7.33;;;;;;;;;;5018421;28;20439;-63
2021/09/12 03:27:09;;;;;;;9.47;8.07;;;;;;;;;;5002002;28;20403;-63
2021/09/12 03:29:35;;;;;;;8.93;7.50;;;;;;;;;;5007153;28;20424;-63
2021/09/12 03:32:01;;;;;;;9.47;6.73;;;;;;;;;;5015766;28;20412;-63
2021/09/12 03:34:27;;;;;;;9.37;8.20;;;;;;;;;;5006766;28;20516;-63
2021/09/12 03:36:53;;;;;;;12.67;8.67;;;;;;;;;;5001817;28;20473;-63
2021/09/12 03:39:19;;;;;;;10.67;8.00;;;;;;;;;;5016531;28;20435;-63
2021/09/12 03:41:45;;;;;;;10.60;7.40;;;;;;;;;;5019769;28;20403;-63
2021/09/12 03:44:12;;;;;;;8.87;7.43;;;;;;;;;;5005139;28;20475;-64
2021/09/12 03:46:38;;;;;;;8.83;7.23;;;;;;;;;;4998627;28;20443;-64
2021/09/12 03:49:04;;;;;;;8.67;6.83;;;;;;;;;;4999685;28;21125;-64
2021/09/12 03:51:30;;;;;;;9.17;7.10;;;;;;;;;;4999762;28;20415;-63
2021/09/12 03:53:56;;;;;;;12.90;8.17;;;;;;;;;;5010275;28;20466;-63
2021/09/12 03:56:22;;;;;;;9.03;6.90;;;;;;;;;;5019349;28;20454;-64
2021/09/12 03:58:48;;;;;;;13.50;7.70;;;;;;;;;;4997543;28;20432;-63
2021/09/12 04:01:14;;;;;;;9.53;7.90;;;;;;;;;;4999784;28;20396;-62
2021/09/12 04:03:40;;;;;;;12.00;8.67;;;;;;;;;;5006859;28;20983;-63
2021/09/12 04:06:06;;;;;;;10.33;7.73;;;;;;;;;;5019448;28;20435;-63
2021/09/12 04:08:32;;;;;;;12.40;8.23;;;;;;;;;;5017215;28;20427;-64
2021/09/12 04:10:58;;;;;;;9.43;8.27;;;;;;;;;;5015139;28;20477;-65
2021/09/12 04:13:24;;;;;;;10.13;7.77;;;;;;;;;;5004274;28;20518;-63
2021/09/12 04:15:50;;;;;;;8.13;6.47;;;;;;;;;;4996638;28;20564;-63
2021/09/12 04:18:16;;;;;;;9.00;7.10;;;;;;;;;;4997037;28;20448;-63
2021/09/12 04:20:42;;;;;;;9.20;7.47;;;;;;;;;;4996818;28;20774;-63
2021/09/12 04:23:08;;;;;;;10.23;7.10;;;;;;;;;;4998270;28;20451;-65
2021/09/12 04:25:34;;;;;;;11.00;7.90;;;;;;;;;;4996400;28;20401;-62
2021/09/12 04:28:00;;;;;;;8.73;7.07;;;;;;;;;;4997839;28;20436;-62
2021/09/12 04:30:26;;;;;;;13.03;6.50;;;;;;;;;;5016003;28;20904;-62
2021/09/12 04:32:52;;;;;;;7.80;6.47;;;;;;;;;;5014952;28;20534;-63
2021/09/12 04:35:18;;;;;;;8.50;6.47;;;;;;;;;;5015677;28;20506;-63
2021/09/12 04:37:44;;;;;;;7.80;6.67;;;;;;;;;;5015760;28;20400;-62
2021/09/12 04:40:11;;;;;;;9.13;7.17;;;;;;;;;;5014804;28;20479;-64
2021/09/12 04:42:37;;;;;;;9.13;6.33;;;;;;;;;;5015939;28;20424;-62
2021/09/12 04:45:04;;;;;;;8.13;7.30;;;;;;;;;;5013625;28;20435;-63
2021/09/12 04:47:30;;;;;;;8.97;6.77;;;;;;;;;;5015023;28;20431;-64
2021/09/12 04:49:57;;;;;;;8.20;6.67;;;;;;;;;;5014537;28;20432;-63
2021/09/12 04:52:23;;;;;;;7.90;5.90;;;;;;;;;;5015371;28;20418;-63
2021/09/12 04:54:49;;;;;;;8.20;6.47;;;;;;;;;;5000484;28;20432;-63
2021/09/12 04:57:15;;;;;;;8.90;6.80;;;;;;;;;;4996223;28;20397;-63
2021/09/12 04:59:41;;;;;;;11.30;6.40;;;;;;;;;;5009016;28;20418;-63
2021/09/12 05:02:07;;;;;;;9.27;7.43;;;;;;;;;;5015429;28;20498;-63
2021/09/12 05:04:34;;;;;;;9.23;6.50;;;;;;;;;;5002676;28;20507;-63
2021/09/12 05:07:00;;;;;;;12.37;7.50;;;;;;;;;;4996086;28;20404;-63
2021/09/12 05:09:26;;;;;;;7.07;6.20;;;;;;;;;;5006170;28;20424;-63
2021/09/12 05:11:52;;;;;;;8.30;6.53;;;;;;;;;;5015288;28;20388;-63
2021/09/12 05:14:18;;;;;;;9.23;7.07;;;;;;;;;;5013695;28;20586;-62
2021/09/12 05:16:44;;;;;;;9.03;6.83;;;;;;;;;;5014983;28;20461;-63
2021/09/12 05:19:10;;;;;;;9.73;6.60;;;;;;;;;;5013458;28;20515;-63
2021/09/12 05:21:36;;;;;;;7.80;6.93;;;;;;;;;;5015089;28;20399;-62
2021/09/12 05:24:02;;;;;;;9.23;7.47;;;;;;;;;;5013520;28;20531;-63
2021/09/12 05:26:28;;;;;;;9.10;7.00;;;;;;;;;;5014690;28;20399;-63
2021/09/12 05:28:54;;;;;;;10.20;7.60;;;;;;;;;;5013504;28;20423;-63
2021/09/12 05:31:20;;;;;;;10.10;7.67;;;;;;;;;;5014692;28;20407;-63
2021/09/12 05:33:46;;;;;;;9.00;7.17;;;;;;;;;;5013455;28;20461;-63
2021/09/12 05:36:12;;;;;;;7.63;6.50;;;;;;;;;;5014766;28;20447;-63
2021/09/12 05:38:39;;;;;;;8.90;7.10;;;;;;;;;;5013135;28;20435;-63
2021/09/12 05:41:05;;;;;;;10.47;8.10;;;;;;;;;;5013540;28;20459;-62
2021/09/12 05:43:31;;;;;;;7.90;6.90;;;;;;;;;;5013312;28;20431;-64
2021/09/12 05:45:57;;;;;;;7.73;6.33;;;;;;;;;;5014667;28;20404;-63
2021/09/12 05:48:23;;;;;;;9.30;6.43;;;;;;;;;;5013675;28;20916;-64
2021/09/12 05:50:49;;;;;;;8.23;6.20;;;;;;;;;;5014601;28;21012;-63
2021/09/12 05:53:17;;;;;;;10.20;8.07;;;;;;;;;;5007759;28;20956;-63
2021/09/12 05:55:43;;;;;;;9.37;7.00;;;;;;;;;;5013077;28;20478;-63
2021/09/12 05:58:09;;;;;;;8.53;6.87;;;;;;;;;;5014354;28;20404;-63
2021/09/12 06:00:35;;;;;;;8.67;7.67;;;;;;;;;;4995876;28;20456;-63
2021/09/12 06:03:01;;;;;;;9.30;7.40;;;;;;;;;;4993211;28;20515;-64
2021/09/12 06:05:27;;;;;;;8.90;7.50;;;;;;;;;;5010526;28;20466;-63
2021/09/12 06:07:53;;;;;;;9.70;7.57;;;;;;;;;;5013973;28;20407;-63
2021/09/12 06:10:19;;;;;;;10.60;8.30;;;;;;;;;;4998335;28;20460;-63
2021/09/12 06:12:45;;;;;;;9.53;7.03;;;;;;;;;;4994625;28;20793;-63
2021/09/12 06:15:11;;;;;;;8.73;7.70;;;;;;;;;;5007847;28;20865;-63
2021/09/12 06:17:37;;;;;;;9.40;7.30;;;;;;;;;;5014306;28;20411;-63
2021/09/12 06:20:04;;;;;;;9.40;8.13;;;;;;;;;;5012004;28;20433;-63
2021/09/12 06:22:30;;;;;;;10.07;7.90;;;;;;;;;;5012976;28;20458;-63
2021/09/12 06:24:56;;;;;;;12.67;8.03;;;;;;;;;;5012985;28;20434;-63
2021/09/12 06:27:22;;;;;;;9.43;7.67;;;;;;;;;;5011970;28;20454;-63
2021/09/12 06:29:48;;;;;;;12.83;9.00;;;;;;;;;;5012792;28;20438;-63
2021/09/12 06:32:14;;;;;;;9.70;8.17;;;;;;;;;;5013617;28;20415;-63
2021/09/12 06:34:41;;;;;;;10.83;7.77;;;;;;;;;;5012588;28;20498;-63
2021/09/12 06:37:07;;;;;;;10.27;7.50;;;;;;;;;;4995457;28;20487;-63
2021/09/12 06:39:33;;;;;;;12.60;8.80;;;;;;;;;;5012924;28;20506;-65
2021/09/12 06:41:59;;;;;;;10.50;8.00;;;;;;;;;;5013669;28;20403;-63
2021/09/12 06:44:25;;;;;;;13.50;7.83;;;;;;;;;;5012621;28;20451;-64
2021/09/12 06:46:52;;;;;;;9.80;7.43;;;;;;;;;;5013834;28;20408;-63
2021/09/12 06:49:18;;;;;;;10.20;7.67;;;;;;;;;;5012184;28;20423;-63
2021/09/12 06:51:44;;;;;;;12.47;8.40;;;;;;;;;;5014079;28;20396;-64
2021/09/12 06:54:10;;;;;;;13.13;10.13;;;;;;;;;;5008697;28;20444;-63
2021/09/12 06:56:36;;;;;;;14.90;10.07;;;;;;;;;;4993712;28;20459;-64
2021/09/12 06:59:02;;;;;;;9.50;8.30;;;;;;;;;;4996008;28;20427;-65
2021/09/12 07:01:28;;;;;;;12.10;8.57;;;;;;;;;;5013803;28;20819;-64
2021/09/12 07:03:54;;;;;;;11.57;8.10;;;;;;;;;;5012322;28;20470;-65
2021/09/12 07:06:20;;;;;;;13.33;9.03;;;;;;;;;;5013288;28;20901;-64
2021/09/12 07:08:46;;;;;;;13.13;8.80;;;;;;;;;;5012885;28;20400;-64
2021/09/12 07:11:13;;;;;;;10.00;6.87;;;;;;;;;;4993969;28;20420;-63
2021/09/12 07:13:41;;;;;;;11.10;8.23;;;;;;;;;;4993268;28;20443;-63
2021/09/12 07:16:07;;;;;;;9.97;8.03;;;;;;;;;;5011826;28;20451;-64
2021/09/12 07:18:33;;;;;;;8.80;7.57;;;;;;;;;;5013533;28;20403;-64
2021/09/12 07:20:59;;;;;;;8.30;6.83;;;;;;;;;;4994531;28;20424;-64
2021/09/12 07:23:25;;;;;;;11.70;7.10;;;;;;;;;;5013091;28;20427;-64
2021/09/12 07:25:51;;;;;;;10.07;7.73;;;;;;;;;;4996133;28;20428;-63
2021/09/12 07:28:17;;;;;;;9.90;6.80;;;;;;;;;;4993537;28;20424;-63
2021/09/12 07:30:43;;;;;;;9.37;7.67;;;;;;;;;;5008568;28;20423;-63
2021/09/12 07:33:09;;;;;;;9.00;6.70;;;;;;;;;;5004284;28;20444;-65
2021/09/12 07:35:35;;;;;;;7.23;6.27;;;;;;;;;;5007274;28;20521;-64
2021/09/12 07:38:01;;;;;;;9.57;6.97;;;;;;;;;;5013194;28;20410;-65
2021/09/12 07:40:27;;;;;;;10.90;6.70;;;;;;;;;;5012104;28;20420;-64
2021/09/12 07:42:53;;;;;;;8.83;7.47;;;;;;;;;;5012990;28;20463;-64
2021/09/12 07:45:19;;;;;;;9.00;6.97;;;;;;;;;;5010613;28;20419;-64
2021/09/12 07:47:45;;;;;;;7.30;5.90;;;;;;;;;;5014092;28;20406;-64
2021/09/12 07:50:12;;;;;;;9.30;7.20;;;;;;;;;;5015934;28;20505;-64
2021/09/12 07:52:42;;;;;;;7.50;6.43;;;;;;;;;;4999042;28;20435;-63
2021/09/12 07:55:09;;;;;;;8.40;6.90;;;;;;;;;;5015939;28;20915;-64
2021/09/12 07:57:35;;;;;;;13.13;6.33;;;;;;;;;;5016195;28;20391;-64
2021/09/12 08:00:01;;;;;;;8.77;6.67;;;;;;;;;;5015766;28;20427;-64
2021/09/12 08:02:27;;;;;;;8.43;6.60;;;;;;;;;;5016355;28;20506;-64
2021/09/12 08:04:53;;;;;;;8.03;7.07;;;;;;;;;;5015256;28;20443;-64
2021/09/12 08:07:19;;;;;;;8.40;6.90;;;;;;;;;;5015390;28;20423;-64
2021/09/12 08:09:45;;;;;;;12.33;7.60;;;;;;;;;;5015578;28;20415;-64
2021/09/12 08:12:11;;;;;;;9.63;6.90;;;;;;;;;;5016485;28;20402;-64
2021/09/12 08:14:37;;;;;;;8.73;6.10;;;;;;;;;;5015776;28;20436;-64
2021/09/12 08:17:03;;;;;;;7.90;6.03;;;;;;;;;;5016269;28;20547;-64
2021/09/12 08:19:29;;;;;;;8.20;6.50;;;;;;;;;;5014400;28;20471;-65
2021/09/12 08:21:55;;;;;;;6.53;5.30;;;;;;;;;;5016962;28;20403;-64
2021/09/12 08:24:22;;;;;;;8.03;5.60;;;;;;;;;;5013669;28;20557;-64
2021/09/12 08:26:48;;;;;;;5.73;5.10;;;;;;;;;;4996731;28;20660;-64
2021/09/12 08:29:14;;;;;;;7.90;5.40;;;;;;;;;;4997292;28;20400;-65
2021/09/12 08:31:40;;;;;;;7.33;4.93;;;;;;;;;;5016304;28;20415;-64
2021/09/12 08:34:06;;;;;;;6.47;4.70;;;;;;;;;;5016109;28;20823;-64
2021/09/12 08:36:32;;;;;;;8.07;6.10;;;;;;;;;;4996522;28;20471;-64
2021/09/12 08:38:58;;;;;;;6.53;5.10;;;;;;;;;;4996363;28;20764;-64
2021/09/12 08:41:25;;;;;;;7.10;5.63;;;;;;;;;;4996381;28;20439;-64
2021/09/12 08:43:51;;;;;;;8.20;6.00;;;;;;;;;;4996429;28;20428;-64
2021/09/12 08:46:18;;;;;;;5.63;4.80;;;;;;;;;;5012370;28;20951;-64
2021/09/12 08:48:45;;;;;;;6.07;4.90;;;;;;;;;;5015997;28;20837;-64
2021/09/12 08:51:11;;;;;;;7.67;5.50;;;;;;;;;;5014584;28;20443;-64
2021/09/12 08:53:37;;;;;;;7.27;5.57;;;;;;;;;;5015759;28;20510;-64
2021/09/12 08:56:04;;;;;;;5.43;4.93;;;;;;;;;;4993914;28;20468;-64
2021/09/12 08:58:30;;;;;;;5.53;4.77;;;;;;;;;;4996054;28;20404;-64
2021/09/12 09:00:59;;;;;;;5.63;4.70;;;;;;;;;;4995379;28;20478;-64
2021/09/12 09:03:33;;;;;;;6.70;5.00;;;;;;;;;;4995841;28;20432;-64
2021/09/12 09:05:59;;;;;;;7.00;5.00;;;;;;;;;;5008705;28;20434;-64
2021/09/12 09:08:25;;;;;;;7.50;5.80;;;;;;;;;;5015228;28;20900;-64
2021/09/12 09:10:52;;;;;;;7.17;5.40;;;;;;;;;;5002582;28;20440;-64
2021/09/12 09:13:32;;;;;;;8.03;4.70;;;;;;;;;;4995368;28;20510;-65
2021/09/12 09:15:59;;;;;;;6.27;4.20;;;;;;;;;;5008225;28;20481;-64
2021/09/12 09:18:36;;;;;;;5.07;4.13;;;;;;;;;;5015311;28;20417;-64
2021/09/12 09:21:22;;;;;;;4.93;3.90;;;;;;;;;;5014120;28;20427;-64
2021/09/12 09:23:48;;;;;;;5.00;4.10;;;;;;;;;;5015489;28;20510;-64
2021/09/12 09:26:21;;;;;;;5.83;5.10;;;;;;;;;;5014315;28;20456;-64
2021/09/12 09:28:54;;;;;;;5.70;4.17;;;;;;;;;;5015375;28;20419;-64
2021/09/12 09:31:23;;;;;;;6.77;4.67;;;;;;;;;;5014409;28;20522;-64
2021/09/12 09:33:49;;;;;;;7.83;3.60;;;;;;;;;;5015150;28;20794;-64
2021/09/12 09:36:18;;;;;;;4.73;3.73;;;;;;;;;;5013668;28;20459;-64
2021/09/12 09:38:46;;;;;;;5.47;4.63;;;;;;;;;;5014949;28;20435;-64
2021/09/12 09:41:14;;;;;;;5.60;4.00;;;;;;;;;;5013942;28;20427;-64
2021/09/12 09:43:41;;;;;;;4.93;4.30;;;;;;;;;;5014864;28;20423;-64
2021/09/12 09:46:25;;;;;;;4.67;3.83;;;;;;;;;;5013615;28;20423;-64
2021/09/12 09:48:51;;;;;;;5.53;3.97;;;;;;;;;;5011705;28;20427;-64
2021/09/12 09:51:18;;;;;;;4.60;3.63;;;;;;;;;;5013752;28;20438;-64
2021/09/12 09:53:44;;;;;;;5.30;3.87;;;;;;;;;;5014236;28;20459;-64
2021/09/12 09:56:11;;;;;;;4.67;4.17;;;;;;;;;;5013410;28;20455;-64
2021/09/12 09:58:37;;;;;;;4.80;3.83;;;;;;;;;;5014195;28;20498;-63
2021/09/12 10:01:04;;;;;;;5.33;3.60;;;;;;;;;;5013583;28;20423;-63
2021/09/12 10:03:31;;;;;;;6.43;4.10;;;;;;;;;;5014341;28;20431;-64
2021/09/12 10:05:57;;;;;;;4.50;3.70;;;;;;;;;;5013122;28;20485;-64
2021/09/12 10:08:24;;;;;;;7.53;4.30;;;;;;;;;;5014384;28;20467;-64
2021/09/12 10:10:50;;;;;;;4.53;3.13;;;;;;;;;;5011571;28;20742;-63
2021/09/12 10:13:18;;;;;;;4.40;2.87;;;;;;;;;;5013930;28;20502;-62
2021/09/12 10:15:47;;;;;;;4.20;3.30;;;;;;;;;;5012890;28;20465;-64
2021/09/12 10:18:13;;;;;;;5.20;3.70;;;;;;;;;;5014237;28;20403;-64
2021/09/12 10:20:40;;;;;;;4.73;3.80;;;;;;;;;;5012982;28;20970;-64
2021/09/12 10:23:13;;;;;;;4.97;3.23;;;;;;;;;;5012029;28;20451;-65
2021/09/12 10:25:48;;;;;;;3.70;3.00;;;;;;;;;;5012676;28;20438;-64
2021/09/12 10:28:14;;;;;;;4.47;3.27;;;;;;;;;;5013557;28;20403;-65
2021/09/12 10:30:42;;;;;;;4.90;2.97;;;;;;;;;;5012509;28;20900;-64
2021/09/12 10:33:08;;;;;;;6.33;3.33;;;;;;;;;;5013555;28;20450;-65
2021/09/12 10:35:54;;;;;;;4.33;3.93;;;;;;;;;;5012465;28;20462;-65
2021/09/12 10:38:26;;;;;;;4.87;3.67;;;;;;;;;;4979987;28;20432;-65
2021/09/12 10:40:53;;;;;;;4.37;3.77;;;;;;;;;;4994068;28;20408;-64
2021/09/12 10:43:25;;;;;;;4.40;3.97;;;;;;;;;;5011665;28;20439;-64
2021/09/12 10:46:04;;;;;;;8.03;3.90;;;;;;;;;;5013598;28;20908;-64
2021/09/12 10:48:31;;;;;;;5.33;4.47;;;;;;;;;;4994508;28;20447;-64
2021/09/12 10:50:57;;;;;;;5.63;4.10;;;;;;;;;;4994379;28;20408;-64
2021/09/12 10:53:42;;;;;;;4.93;3.70;;;;;;;;;;5011761;28;20534;-64
2021/09/12 10:56:08;;;;;;;4.30;3.40;;;;;;;;;;5012926;28;20450;-65
2021/09/12 10:58:34;;;;;;;4.70;3.43;;;;;;;;;;4994195;28;20412;-64
2021/09/12 11:01:01;;;;;;;4.20;3.80;;;;;;;;;;4993807;28;20893;-64
2021/09/12 11:03:28;;;;;;;4.30;3.60;;;;;;;;;;5011860;28;20439;-64
2021/09/12 11:05:54;;;;;;;4.80;3.70;;;;;;;;;;5012712;28;20411;-65
2021/09/12 11:08:20;;;;;;;5.10;4.30;;;;;;;;;;5011593;28;20999;-64
2021/09/12 11:10:50;;;;;;;5.40;3.87;;;;;;;;;;5013324;28;20892;-64
2021/09/12 11:13:23;;;;;;;5.50;4.20;;;;;;;;;;5011660;28;20798;-64
2021/09/12 11:15:50;;;;;;;4.50;3.80;;;;;;;;;;5013117;28;20813;-64
2021/09/12 11:18:16;;;;;;;5.90;3.50;;;;;;;;;;4979144;28;20475;-64
2021/09/12 11:20:43;;;;;;;4.63;3.90;;;;;;;;;;4997348;28;20426;-64
2021/09/12 11:23:10;;;;;;;5.43;3.97;;;;;;;;;;4999362;28;20447;-64
2021/09/12 11:25:36;;;;;;;4.20;3.07;;;;;;;;;;4997588;28;20729;-63
2021/09/12 11:28:03;;;;;;;4.90;3.30;;;;;;;;;;4997523;28;20479;-64
2021/09/12 11:30:29;;;;;;;4.37;3.40;;;;;;;;;;4997630;28;20416;-64
2021/09/12 11:32:55;;;;;;;4.00;3.37;;;;;;;;;;4997211;28;20463;-63
2021/09/12 11:35:21;;;;;;;5.37;3.60;;;;;;;;;;4997175;28;20466;-64
2021/09/12 11:38:02;;;;;;;3.97;3.23;;;;;;;;;;5008075;28;20493;-63
2021/09/12 11:40:28;;;;;;;4.10;2.97;;;;;;;;;;5015941;28;20433;-64
2021/09/12 11:43:07;;;;;;;4.70;3.37;;;;;;;;;;5004397;28;20450;-64
2021/09/12 11:45:33;;;;;;;5.90;3.90;;;;;;;;;;4997403;28;20405;-64
2021/09/12 11:47:59;;;;;;;4.73;3.43;;;;;;;;;;4997452;28;20434;-64
2021/09/12 11:50:25;;;;;;;7.57;3.57;;;;;;;;;;4979600;28;20447;-64
2021/09/12 11:52:50;;;;;;;4.60;3.60;;;;;;;;;;5005852;28;20954;-64
2021/09/12 11:55:21;;;;;;;4.20;3.30;;;;;;;;;;5016586;28;20463;-64
2021/09/12 11:58:00;;;;;;;5.80;4.03;;;;;;;;;;5015764;28;20566;-63
2021/09/12 12:00:26;;;;;;;4.20;3.00;;;;;;;;;;5016615;28;20449;-64
2021/09/12 12:02:53;;;;;;;5.90;2.77;;;;;;;;;;5015762;28;21033;-63
2021/09/12 12:05:19;;;;;;;4.27;2.90;;;;;;;;;;5016631;28;20438;-64
2021/09/12 12:07:45;;;;;;;3.40;2.83;;;;;;;;;;5015502;28;20431;-64
2021/09/12 12:10:28;;;;;;;4.70;3.27;;;;;;;;;;5016440;28;20537;-64
2021/09/12 12:12:54;;;;;;;4.37;3.50;;;;;;;;;;5005327;28;20546;-64
2021/09/12 12:15:30;;;;;;;4.30;3.03;;;;;;;;;;4997064;28;20460;-64
2021/09/12 12:17:56;;;;;;;4.13;2.80;;;;;;;;;;5007504;28;20775;-64
2021/09/12 12:20:22;;;;;;;5.37;4.53;;;;;;;;;;5016278;28;20458;-64
2021/09/12 12:22:48;;;;;;;3.70;3.07;;;;;;;;;;5006235;28;20479;-63
2021/09/12 12:25:26;;;;;;;3.60;2.63;;;;;;;;;;4996763;28;20400;-63
2021/09/12 12:27:52;;;;;;;3.83;2.93;;;;;;;;;;5006738;28;20745;-64
2021/09/12 12:30:18;;;;;;;4.20;3.00;;;;;;;;;;5017494;28;20774;-63
2021/09/12 12:32:45;;;;;;;3.40;2.90;;;;;;;;;;5008194;28;20482;-63
2021/09/12 12:35:18;;;;;;;4.50;3.30;;;;;;;;;;4996313;28;20481;-63
2021/09/12 12:37:45;;;;;;;3.30;2.53;;;;;;;;;;5004816;28;20493;-64
2021/09/12 12:40:13;;;;;;;4.20;2.97;;;;;;;;;;5016020;28;20411;-64
2021/09/12 12:42:39;;;;;;;4.90;2.83;;;;;;;;;;5008126;28;20801;-64
2021/09/12 12:45:18;;;;;;;3.90;3.07;;;;;;;;;;4996125;28;20408;-64
2021/09/12 12:47:44;;;;;;;4.00;2.83;;;;;;;;;;5004202;28;20465;-64
2021/09/12 12:50:10;;;;;;;3.30;2.67;;;;;;;;;;5015836;28;20408;-64
2021/09/12 12:52:36;;;;;;;6.50;3.23;;;;;;;;;;5015471;28;20517;-64
2021/09/12 12:55:05;;;;;;;4.20;3.00;;;;;;;;;;5015508;28;20740;-64
2021/09/12 12:57:32;;;;;;;3.90;3.10;;;;;;;;;;5014881;28;20431;-65
2021/09/12 12:59:58;;;;;;;3.37;2.70;;;;;;;;;;5015879;28;20403;-64
2021/09/12 13:02:24;;;;;;;4.00;2.80;;;;;;;;;;5014340;28;20505;-65
2021/09/12 13:04:50;;;;;;;3.40;2.87;;;;;;;;;;5015745;28;20799;-64
2021/09/12 13:07:16;;;;;;;2.90;2.40;;;;;;;;;;5014822;28;20757;-65
2021/09/12 13:09:43;;;;;;;5.17;3.40;;;;;;;;;;5015773;28;20402;-64
2021/09/12 13:12:10;;;;;;;4.27;2.90;;;;;;;;;;5012906;28;20407;-65
2021/09/12 13:14:36;;;;;;;3.63;2.53;;;;;;;;;;4994470;28;20499;-64
2021/09/12 13:17:03;;;;;;;4.93;3.73;;;;;;;;;;4996347;28;20956;-65
2021/09/12 13:19:29;;;;;;;4.80;3.27;;;;;;;;;;5014296;28;20447;-64
2021/09/12 13:21:55;;;;;;;3.87;3.17;;;;;;;;;;5013154;28;20975;-66
2021/09/12 13:24:21;;;;;;;5.33;2.87;;;;;;;;;;5014350;28;20434;-64
2021/09/12 13:26:47;;;;;;;4.20;3.37;;;;;;;;;;5015209;28;20415;-65
2021/09/12 13:29:13;;;;;;;3.17;2.87;;;;;;;;;;5013771;28;20439;-64
2021/09/12 13:31:41;;;;;;;3.67;2.83;;;;;;;;;;5014881;28;20449;-64
2021/09/12 13:34:07;;;;;;;3.20;2.53;;;;;;;;;;5014035;28;20520;-65
2021/09/12 13:36:33;;;;;;;4.87;2.70;;;;;;;;;;5014784;28;20447;-64
2021/09/12 13:38:59;;;;;;;5.20;2.73;;;;;;;;;;5013878;28;20441;-64
2021/09/12 13:41:26;;;;;;;4.10;2.70;;;;;;;;;;5014892;28;20396;-64
2021/09/12 13:43:52;;;;;;;4.77;3.00;;;;;;;;;;4999523;28;20452;-64
2021/09/12 13:46:18;;;;;;;3.30;2.77;;;;;;;;;;4994631;28;20404;-65
2021/09/12 13:48:44;;;;;;;4.03;3.17;;;;;;;;;;5008068;28;20431;-64
2021/09/12 13:51:10;;;;;;;4.43;2.80;;;;;;;;;;5014588;28;20806;-64
2021/09/12 13:53:36;;;;;;;3.80;2.90;;;;;;;;;;5012524;28;20455;-64
2021/09/12 13:56:02;;;;;;;3.03;2.40;;;;;;;;;;5013442;28;20462;-64
2021/09/12 13:58:28;;;;;;;2.93;2.37;;;;;;;;;;5013662;28;20427;-64
2021/09/12 14:00:55;;;;;;;3.83;2.60;;;;;;;;;;5014947;28;20404;-64
2021/09/12 14:03:21;;;;;;;3.60;2.57;;;;;;;;;;5013742;28;20450;-64
2021/09/12 14:05:47;;;;;;;4.50;2.83;;;;;;;;;;5014774;28;20407;-64
2021/09/12 14:08:13;;;;;;;3.43;2.60;;;;;;;;;;5005532;28;20435;-65
2021/09/12 14:10:39;;;;;;;5.40;2.53;;;;;;;;;;4994647;28;20411;-64
2021/09/12 14:13:05;;;;;;;3.27;2.20;;;;;;;;;;5001384;28;20443;-64
2021/09/12 14:15:31;;;;;;;5.40;2.60;;;;;;;;;;5014032;28;20509;-64
2021/09/12 14:17:57;;;;;;;2.80;2.17;;;;;;;;;;5013133;28;20439;-65
2021/09/12 14:20:24;;;;;;;3.30;2.43;;;;;;;;;;5013080;28;20952;-65
2021/09/12 14:22:50;;;;;;;5.10;3.10;;;;;;;;;;5013028;28;20446;-64
2021/09/12 14:25:16;;;;;;;3.20;2.50;;;;;;;;;;5013889;28;20478;-65
2021/09/12 14:27:42;;;;;;;3.83;2.83;;;;;;;;;;5011881;28;20427;-65
2021/09/12 14:30:08;;;;;;;3.97;3.00;;;;;;;;;;5014099;28;20470;-65
2021/09/12 14:32:34;;;;;;;2.90;2.37;;;;;;;;;;5012582;28;20451;-65
2021/09/12 14:35:00;;;;;;;2.77;2.17;;;;;;;;;;5013627;28;20415;-64
2021/09/12 14:37:26;;;;;;;3.10;2.53;;;;;;;;;;5012597;28;20455;-64